Lake Park, Iowa
Current Conditions -  °F | °C
As of 6:55 PM on Tuesday 21 Oct 2014 (Local Time) from KOTG Reporting Station
Clear Clear  
Wind Chill: 57°   Ceiling: Unl
Heat Index: 57°   Visibility: 10mi
Dew Point: 39°   Wind: 8mph
Humidity: 51%   Direction: 130°SE
Pressure: 30.05"   Gusts: NA
Location:  43.46°N, 95.32°W
Report Text: KOTG 212355Z AUTO 13007KT 10SM CLR 14/04 A3005 RMK AO1 10210 20140 402100010 54000
Loading
Personal Weather Stations






























Interactive Weather Map
Tropical Storm Tracking
New forecast layout! Learn more

10-Day Weather Forecast

Advertisements
Track Severe Weather on mobile